Anaconda, Montana
Current Conditions -  °F | °C
As of 12:53 AM on Sunday 26 Oct 2014 (Local Time) from KBTM Reporting Station
Clear Clear  
Wind Chill: 52°   Ceiling: Unl
Heat Index: 52°   Visibility: 10mi
Dew Point: 33°   Wind: 8mph
Humidity: 49%   Direction: 240°WSW
Pressure: 29.77"   Gusts: NA
Location:  46.13°N, 112.94°W
Report Text: KBTM 260653Z AUTO 24007KT 10SM CLR 11/01 A2977 RMK AO2 SLP043 T01110006 401941022
Loading
Personal Weather Stations






























Interactive Weather Map New forecast layout! Learn more

10-Day Weather Forecast

Advertisements
Track Severe Weather on mobile